createdAt,value
2023-03-06T00:01:54.148Z,43.38
2023-03-06T00:04:20.803Z,44.50
2023-03-06T00:06:47.307Z,46.58
2023-03-06T00:09:13.882Z,40.72
2023-03-06T00:11:40.392Z,45.03
2023-03-06T00:14:06.892Z,46.15
2023-03-06T00:16:33.565Z,51.88
2023-03-06T00:19:00.125Z,52.47
2023-03-06T00:21:26.663Z,50.05
2023-03-06T00:23:53.310Z,46.80
2023-03-06T00:26:19.789Z,47.45
2023-03-06T00:28:46.355Z,50.53
2023-03-06T00:31:13.287Z,49.35
2023-03-06T00:33:40.992Z,50.88
2023-03-06T00:36:08.471Z,54.55
2023-03-06T00:38:35.335Z,54.88
2023-03-06T00:41:12.184Z,53.50
2023-03-06T00:43:39.037Z,50.83
2023-03-06T00:46:06.092Z,49.60
2023-03-06T00:48:33.953Z,51.70
2023-03-06T00:51:00.878Z,50.10
2023-03-06T00:53:27.695Z,51.63
2023-03-06T00:55:56.525Z,50.80
2023-03-06T00:58:23.427Z,49.75
2023-03-06T01:00:50.194Z,51.92
2023-03-06T01:03:16.697Z,51.30
2023-03-06T01:05:43.516Z,54.35
2023-03-06T01:08:10.048Z,50.15
2023-03-06T01:10:40.793Z,49.97
2023-03-06T01:13:07.335Z,50.50
2023-03-06T01:15:33.923Z,51.90
2023-03-06T01:18:00.826Z,56.20
2023-03-06T01:20:27.799Z,58.55
2023-03-06T01:22:54.331Z,55.80
2023-03-06T01:25:21.099Z,56.63
2023-03-06T01:27:47.651Z,57.70
2023-03-06T01:30:14.273Z,53.05
2023-03-06T01:32:40.852Z,54.42
2023-03-06T01:35:08.102Z,58.60
2023-03-06T01:37:36.467Z,58.83
2023-03-06T01:40:03.332Z,53.03
2023-03-06T01:42:32.024Z,52.97
2023-03-06T01:45:07.321Z,57.88
2023-03-06T01:47:33.973Z,50.08
2023-03-06T01:50:01.538Z,47.40
2023-03-06T01:52:33.268Z,46.47
2023-03-06T01:55:04.353Z,46.95
2023-03-06T01:57:34.316Z,49.58
2023-03-06T02:00:23.241Z,45.95
2023-03-06T02:03:01.309Z,48.53
2023-03-06T02:05:27.842Z,45.80
2023-03-06T02:07:54.610Z,45.95
2023-03-06T02:10:21.234Z,49.00
2023-03-06T02:12:48.366Z,50.20
2023-03-06T02:15:18.333Z,54.75
2023-03-06T02:17:46.106Z,53.78
2023-03-06T02:20:36.320Z,51.97
2023-03-06T02:23:20.984Z,46.10
2023-03-06T02:25:49.917Z,53.28
2023-03-06T02:28:19.332Z,48.08
2023-03-06T02:30:48.263Z,46.92
2023-03-06T02:33:17.177Z,49.55
2023-03-06T02:35:47.346Z,48.92
2023-03-06T02:38:15.506Z,50.78
2023-03-06T02:40:44.404Z,55.45
2023-03-06T02:43:11.542Z,49.28
2023-03-06T02:45:41.663Z,57.22
2023-03-06T02:48:08.187Z,57.47
2023-03-06T02:50:34.727Z,48.88
2023-03-06T02:53:01.280Z,52.10
2023-03-06T02:55:27.851Z,51.20
2023-03-06T02:57:54.400Z,52.05
2023-03-06T03:00:21.028Z,53.03
2023-03-06T03:02:47.691Z,53.33
2023-03-06T03:05:14.223Z,52.88
2023-03-06T03:07:40.778Z,54.67
2023-03-06T03:10:07.840Z,49.53
2023-03-06T03:12:34.327Z,47.75
2023-03-06T03:15:01.470Z,48.13
2023-03-06T03:17:28.540Z,51.75
2023-03-06T03:19:55.115Z,47.95
2023-03-06T03:22:21.652Z,52.17
2023-03-06T03:24:48.235Z,54.38
2023-03-06T03:27:15.236Z,51.40
2023-03-06T03:29:41.813Z,46.17
2023-03-06T03:32:08.592Z,49.78
2023-03-06T03:34:35.268Z,46.90
2023-03-06T03:37:01.846Z,50.13
2023-03-06T03:39:28.389Z,51.42
2023-03-06T03:41:54.903Z,55.10
2023-03-06T03:44:21.434Z,51.58
2023-03-06T03:46:48.038Z,48.72
2023-03-06T03:49:14.912Z,49.45
2023-03-06T03:51:41.450Z,47.30
2023-03-06T03:54:07.939Z,48.33
2023-03-06T03:56:34.478Z,57.10
2023-03-06T03:59:01.242Z,49.15
2023-03-06T04:01:27.953Z,51.20
2023-03-06T04:03:54.516Z,52.80
2023-03-06T04:06:21.110Z,54.45
2023-03-06T04:08:47.711Z,54.45
2023-03-06T04:11:14.211Z,52.50
2023-03-06T04:13:40.747Z,59.20
2023-03-06T04:16:07.652Z,55.58
2023-03-06T04:18:34.158Z,53.05
2023-03-06T04:21:00.828Z,57.25
2023-03-06T04:23:27.330Z,49.47
2023-03-06T04:25:54.057Z,50.63
2023-03-06T04:28:20.848Z,51.35
2023-03-06T04:30:47.386Z,49.72
2023-03-06T04:33:13.927Z,54.97
2023-03-06T04:35:40.564Z,51.35
2023-03-06T04:38:07.404Z,57.40
2023-03-06T04:40:36.038Z,53.97
2023-03-06T04:43:03.720Z,51.55
2023-03-06T04:45:31.439Z,51.35
2023-03-06T04:47:58.617Z,51.80
2023-03-06T04:50:27.463Z,56.50
2023-03-06T04:52:54.548Z,54.85
2023-03-06T04:55:21.167Z,52.60
2023-03-06T04:57:47.992Z,50.53
2023-03-06T05:00:21.218Z,52.95
2023-03-06T05:02:48.788Z,53.65
2023-03-06T05:05:16.102Z,52.03
2023-03-06T05:07:43.925Z,55.88
2023-03-06T05:10:12.746Z,49.58
2023-03-06T05:12:39.316Z,57.92
2023-03-06T05:15:07.079Z,52.67
2023-03-06T05:17:34.163Z,54.10
2023-03-06T05:20:00.698Z,50.67
2023-03-06T05:22:27.330Z,47.05
2023-03-06T05:24:53.875Z,47.95
2023-03-06T05:27:20.445Z,50.80
2023-03-06T05:29:47.295Z,48.67
2023-03-06T05:32:13.903Z,51.63
2023-03-06T05:34:40.551Z,46.90
2023-03-06T05:37:07.083Z,46.47
2023-03-06T05:39:33.575Z,48.22
2023-03-06T05:42:00.126Z,48.92
2023-03-06T05:44:34.364Z,50.22
2023-03-06T05:47:01.354Z,48.85
2023-03-06T05:49:32.626Z,49.00
2023-03-06T05:51:59.514Z,50.40
2023-03-06T05:54:26.011Z,53.70
2023-03-06T05:56:52.575Z,52.67
2023-03-06T05:59:19.062Z,50.40
2023-03-06T06:01:45.544Z,56.67
2023-03-06T06:04:12.081Z,55.22
2023-03-06T06:06:38.537Z,61.08
2023-03-06T06:09:05.073Z,51.53
2023-03-06T06:11:31.726Z,52.25
2023-03-06T06:14:03.379Z,54.72
2023-03-06T06:16:30.357Z,51.30
2023-03-06T06:18:57.560Z,57.85
2023-03-06T06:21:24.050Z,48.65
2023-03-06T06:23:50.624Z,51.58
2023-03-06T06:26:17.161Z,47.83
2023-03-06T06:28:44.766Z,56.72
2023-03-06T06:31:12.129Z,49.55
2023-03-06T06:33:40.356Z,54.17
2023-03-06T06:36:15.894Z,48.53
2023-03-06T06:38:42.859Z,51.50
2023-03-06T06:41:38.993Z,52.85
2023-03-06T06:43:58.695Z,51.58
2023-03-06T06:47:17.895Z,53.10
2023-03-06T06:49:14.401Z,53.65
2023-03-06T06:51:41.051Z,48.75
2023-03-06T06:54:07.948Z,48.50
2023-03-06T06:56:34.721Z,49.78
2023-03-06T06:59:15.310Z,49.60
2023-03-06T07:01:42.986Z,49.38
2023-03-06T07:04:12.571Z,47.67
2023-03-06T07:06:39.098Z,44.50
2023-03-06T07:09:05.601Z,45.75
2023-03-06T07:11:32.347Z,43.13
2023-03-06T07:13:58.886Z,44.78
2023-03-06T07:16:25.420Z,45.25
2023-03-06T07:18:51.925Z,42.30
2023-03-06T07:21:18.460Z,44.03
2023-03-06T07:23:45.055Z,43.63
2023-03-06T07:26:11.917Z,44.10
2023-03-06T07:28:52.079Z,44.28
2023-03-06T07:31:24.494Z,44.05
2023-03-06T07:33:54.658Z,43.70
2023-03-06T07:36:22.399Z,44.10
2023-03-06T07:38:49.120Z,44.15
2023-03-06T07:41:16.037Z,43.20
2023-03-06T07:43:43.966Z,43.17
2023-03-06T07:46:10.541Z,42.60
2023-03-06T07:48:37.654Z,44.83
2023-03-06T07:51:10.611Z,44.95
2023-03-06T07:53:37.149Z,43.42
2023-03-06T07:56:05.026Z,45.33
2023-03-06T07:58:33.343Z,44.60
2023-03-06T08:01:07.126Z,44.15
2023-03-06T08:03:34.021Z,42.67
2023-03-06T08:06:10.515Z,42.80
2023-03-06T08:08:38.471Z,42.20
2023-03-06T08:11:06.335Z,44.92
2023-03-06T08:13:32.911Z,43.15
2023-03-06T08:15:59.439Z,41.80
2023-03-06T08:18:27.076Z,43.22
2023-03-06T08:21:11.071Z,42.90
2023-03-06T08:23:38.137Z,42.47
2023-03-06T08:26:07.022Z,40.17
2023-03-06T08:28:34.045Z,41.40
2023-03-06T08:31:27.926Z,40.83
2023-03-06T08:33:55.565Z,40.35
2023-03-06T08:36:22.070Z,39.70
2023-03-06T08:38:48.612Z,42.15
2023-03-06T08:41:15.143Z,39.30
2023-03-06T08:43:42.001Z,40.85
2023-03-06T08:46:10.445Z,37.42
2023-03-06T08:48:37.326Z,38.33
2023-03-06T08:51:03.988Z,37.28
2023-03-06T08:53:42.675Z,39.92
2023-03-06T08:56:26.119Z,37.95
2023-03-06T08:58:53.235Z,39.70
2023-03-06T09:01:25.983Z,40.60
2023-03-06T09:03:57.714Z,40.05
2023-03-06T09:06:24.906Z,39.85
2023-03-06T09:08:52.275Z,38.38
2023-03-06T09:11:20.736Z,37.33
2023-03-06T09:13:47.232Z,36.13
2023-03-06T09:16:13.772Z,37.55
2023-03-06T09:18:40.370Z,37.70
2023-03-06T09:21:08.107Z,36.08
2023-03-06T09:23:35.374Z,38.22
2023-03-06T09:26:02.029Z,37.15
2023-03-06T09:28:29.251Z,37.42
2023-03-06T09:30:56.076Z,36.30
2023-03-06T09:33:22.629Z,35.50
2023-03-06T09:35:53.217Z,37.88
2023-03-06T09:38:21.567Z,37.20
2023-03-06T09:40:57.343Z,37.17
2023-03-06T09:43:34.433Z,41.42
2023-03-06T09:46:06.111Z,39.17
2023-03-06T09:49:12.354Z,35.95
2023-03-06T09:52:16.372Z,37.95
2023-03-06T09:54:45.563Z,37.20
2023-03-06T09:57:33.281Z,37.28
2023-03-06T10:00:04.666Z,36.67
2023-03-06T10:02:51.374Z,35.55
2023-03-06T10:05:27.154Z,36.90
2023-03-06T10:08:04.390Z,36.00
2023-03-06T10:11:04.245Z,35.03
2023-03-06T10:13:51.967Z,34.90
2023-03-06T10:16:18.629Z,35.45
2023-03-06T10:18:45.214Z,37.72
2023-03-06T10:21:28.618Z,36.45
2023-03-06T10:24:17.358Z,65.00
2023-03-06T10:26:52.879Z,33.92
2023-03-06T10:30:01.729Z,37.67
2023-03-06T10:32:51.393Z,41.63
2023-03-06T10:35:20.996Z,39.42
2023-03-06T10:37:48.652Z,37.63
2023-03-06T10:40:21.623Z,37.25
2023-03-06T10:42:49.527Z,40.35
2023-03-06T10:45:19.837Z,36.42
2023-03-06T10:47:46.595Z,47.13
2023-03-06T10:50:23.661Z,36.53
2023-03-06T10:53:02.138Z,34.38
2023-03-06T10:55:31.250Z,36.95
2023-03-06T10:57:57.928Z,32.65
2023-03-06T11:00:24.975Z,30.70
2023-03-06T11:03:21.640Z,34.75
2023-03-06T11:06:02.106Z,34.03
2023-03-06T11:08:29.624Z,33.75
2023-03-06T11:11:01.094Z,33.85
2023-03-06T11:13:30.501Z,33.03
2023-03-06T11:16:05.112Z,31.92
2023-03-06T11:18:40.891Z,37.72
2023-03-06T11:21:31.281Z,34.83
2023-03-06T11:24:18.494Z,31.33
2023-03-06T11:26:54.841Z,31.55
2023-03-06T11:29:24.053Z,33.53
2023-03-06T11:31:56.982Z,31.38
2023-03-06T11:34:38.744Z,32.20
2023-03-06T11:37:23.701Z,27.58
2023-03-06T11:40:00.887Z,29.83
2023-03-06T11:42:31.807Z,29.15
2023-03-06T11:45:07.205Z,27.30
2023-03-06T11:47:37.673Z,25.35
2023-03-06T11:50:34.624Z,25.08
2023-03-06T11:53:08.031Z,25.48
2023-03-06T11:55:45.635Z,24.75
2023-03-06T11:58:39.959Z,25.42
2023-03-06T12:01:10.477Z,27.02
2023-03-06T12:04:07.462Z,27.35
2023-03-06T12:06:36.952Z,28.48
2023-03-06T12:09:12.220Z,28.98
2023-03-06T12:11:48.196Z,24.95
2023-03-06T12:14:49.997Z,27.00
2023-03-06T12:17:55.970Z,27.05
2023-03-06T12:20:43.614Z,27.95
2023-03-06T12:23:39.242Z,26.60
2023-03-06T12:26:25.723Z,26.38
2023-03-06T12:29:10.497Z,27.70
2023-03-06T12:32:05.142Z,25.45
2023-03-06T12:34:40.999Z,26.27
2023-03-06T12:37:16.902Z,26.17
2023-03-06T12:40:09.778Z,26.48
2023-03-06T12:43:04.250Z,26.40
2023-03-06T12:45:34.609Z,26.48
2023-03-06T12:50:35.543Z,23.98
2023-03-06T12:53:04.757Z,26.10
2023-03-06T12:55:39.801Z,25.75
2023-03-06T12:58:29.562Z,25.13
2023-03-06T13:01:16.044Z,22.08
2023-03-06T13:04:03.723Z,23.73
2023-03-06T13:06:39.123Z,24.63
2023-03-06T13:09:19.263Z,25.50
2023-03-06T13:12:13.772Z,22.98
2023-03-06T13:14:48.772Z,23.05
2023-03-06T13:17:20.419Z,22.17
2023-03-06T13:19:48.082Z,22.00
2023-03-06T13:22:26.859Z,22.63
2023-03-06T13:25:21.339Z,21.15
2023-03-06T13:27:53.583Z,22.25
2023-03-06T13:30:20.089Z,21.55
2023-03-06T13:32:47.073Z,18.33
2023-03-06T13:35:39.681Z,21.00
2023-03-06T13:38:40.979Z,20.40
2023-03-06T13:41:22.710Z,22.05
2023-03-06T13:43:51.494Z,19.33
2023-03-06T13:46:23.834Z,20.40
2023-03-06T13:49:15.174Z,21.60
2023-03-06T13:52:10.881Z,20.23
2023-03-06T13:54:52.651Z,19.75
2023-03-06T13:57:56.875Z,17.10
2023-03-06T14:00:57.489Z,16.65
2023-03-06T14:03:38.565Z,15.60
2023-03-06T14:06:34.303Z,14.65
2023-03-06T14:09:02.368Z,14.90
2023-03-06T14:11:29.159Z,14.75
2023-03-06T14:13:56.849Z,14.80
2023-03-06T14:16:29.085Z,14.48
2023-03-06T14:18:57.688Z,13.20
2023-03-06T14:21:32.847Z,14.20
2023-03-06T14:24:04.024Z,16.30
2023-03-06T14:26:33.685Z,16.65
2023-03-06T14:29:01.869Z,14.68
2023-03-06T14:31:34.794Z,14.60
2023-03-06T14:34:04.114Z,14.93
2023-03-06T14:36:45.306Z,13.48
2023-03-06T14:39:41.221Z,13.30
2023-03-06T14:42:20.846Z,16.30
2023-03-06T14:44:49.000Z,18.30
2023-03-06T14:47:30.386Z,16.40
2023-03-06T14:50:25.783Z,16.85
2023-03-06T14:53:18.494Z,14.15
2023-03-06T14:55:50.147Z,14.25
2023-03-06T14:58:20.593Z,16.42
2023-03-06T15:00:50.343Z,16.10
2023-03-06T15:03:43.822Z,15.45
2023-03-06T15:06:23.140Z,15.57
2023-03-06T15:08:58.670Z,14.80
2023-03-06T15:11:26.248Z,15.05
2023-03-06T15:14:01.017Z,14.60
2023-03-06T15:16:30.012Z,14.02
2023-03-06T15:18:59.749Z,14.68
2023-03-06T15:21:26.928Z,14.00
2023-03-06T15:23:55.948Z,12.23
2023-03-06T15:26:38.712Z,13.77
2023-03-06T15:29:11.133Z,12.55
2023-03-06T15:31:45.552Z,13.40
2023-03-06T15:34:18.291Z,13.15
2023-03-06T15:36:50.612Z,14.02
2023-03-06T15:39:38.054Z,13.95
2023-03-06T15:42:22.347Z,14.48
2023-03-06T15:44:57.920Z,13.05
2023-03-06T15:47:24.618Z,12.13
2023-03-06T15:49:54.367Z,11.43
2023-03-06T15:52:21.807Z,10.95
2023-03-06T15:54:48.844Z,12.77
2023-03-06T15:57:27.133Z,12.27
2023-03-06T15:59:55.613Z,12.57
2023-03-06T16:02:23.682Z,11.63
2023-03-06T16:04:50.938Z,10.52
2023-03-06T16:07:18.833Z,10.80
2023-03-06T16:09:46.064Z,9.98
2023-03-06T16:12:17.425Z,10.30
2023-03-06T16:14:45.382Z,10.93
2023-03-06T16:17:12.257Z,10.15
2023-03-06T16:19:39.096Z,10.15
2023-03-06T16:22:05.630Z,9.70
2023-03-06T16:24:32.144Z,9.98
2023-03-06T16:27:01.210Z,9.98
2023-03-06T16:29:28.939Z,9.70
2023-03-06T16:31:57.296Z,10.10
2023-03-06T16:34:24.316Z,10.10
2023-03-06T16:36:51.219Z,10.65
2023-03-06T16:39:20.106Z,10.77
2023-03-06T16:41:46.840Z,9.98
2023-03-06T16:44:13.466Z,9.63
2023-03-06T16:46:42.465Z,10.32
2023-03-06T16:49:15.398Z,10.18
2023-03-06T16:51:41.895Z,9.95
2023-03-06T16:54:08.371Z,9.88
2023-03-06T16:56:34.848Z,10.13
2023-03-06T16:59:01.424Z,9.30
2023-03-06T17:01:28.007Z,9.68
2023-03-06T17:03:54.699Z,9.05
2023-03-06T17:06:22.460Z,8.25
2023-03-06T17:08:50.348Z,8.32
2023-03-06T17:11:18.420Z,8.13
2023-03-06T17:13:47.430Z,8.80
2023-03-06T17:16:14.489Z,8.85
2023-03-06T17:18:42.311Z,9.15
2023-03-06T17:21:09.328Z,9.20
2023-03-06T17:23:36.279Z,8.55
2023-03-06T17:26:07.162Z,9.07
2023-03-06T17:28:34.795Z,9.05
2023-03-06T17:31:02.874Z,9.70
2023-03-06T17:33:29.523Z,10.13
2023-03-06T17:36:00.555Z,9.52
2023-03-06T17:38:27.721Z,8.88
2023-03-06T17:40:54.323Z,9.50
2023-03-06T17:43:21.155Z,8.95
2023-03-06T17:45:47.690Z,8.77
2023-03-06T17:48:14.354Z,8.80
2023-03-06T17:50:40.901Z,8.60
2023-03-06T17:53:07.406Z,10.50
2023-03-06T17:55:33.982Z,10.52
2023-03-06T17:58:00.547Z,11.00
2023-03-06T18:00:27.115Z,11.68
2023-03-06T18:02:53.685Z,11.77
2023-03-06T18:05:20.844Z,12.48
2023-03-06T18:07:48.715Z,11.13
2023-03-06T18:10:17.784Z,11.27
2023-03-06T18:12:45.506Z,12.32
2023-03-06T18:15:12.372Z,13.57
2023-03-06T18:17:39.089Z,11.52
2023-03-06T18:20:06.269Z,11.27
2023-03-06T18:22:32.914Z,24.08
2023-03-06T18:24:59.518Z,14.50
2023-03-06T18:27:26.084Z,12.10
2023-03-06T18:29:52.600Z,11.15
2023-03-06T18:32:19.300Z,11.60
2023-03-06T18:34:45.806Z,15.80
2023-03-06T18:37:12.675Z,18.92
2023-03-06T18:39:39.151Z,11.52
2023-03-06T18:42:05.827Z,8.65
2023-03-06T18:44:32.353Z,10.70
2023-03-06T18:46:58.991Z,12.18
2023-03-06T18:49:25.509Z,11.52
2023-03-06T18:51:52.157Z,10.82
2023-03-06T18:54:18.836Z,10.77
2023-03-06T18:56:45.393Z,11.30
2023-03-06T18:59:18.913Z,12.00
2023-03-06T19:01:46.637Z,11.75
2023-03-06T19:04:15.713Z,12.05
2023-03-06T19:06:42.307Z,11.23
2023-03-06T19:09:08.807Z,11.18
2023-03-06T19:11:35.302Z,11.18
2023-03-06T19:14:01.828Z,9.50
2023-03-06T19:16:29.503Z,9.77
2023-03-06T19:18:56.661Z,10.07
2023-03-06T19:21:25.326Z,10.30
2023-03-06T19:23:54.244Z,10.70
2023-03-06T19:26:23.284Z,10.88
2023-03-06T19:28:52.609Z,10.30
2023-03-06T19:31:23.922Z,10.85
2023-03-06T19:33:51.249Z,9.40
2023-03-06T19:36:21.136Z,9.75
2023-03-06T19:38:47.614Z,9.95
2023-03-06T19:41:15.251Z,10.35
2023-03-06T19:43:43.063Z,10.60
2023-03-06T19:46:13.738Z,10.35
2023-03-06T19:48:41.406Z,10.60
2023-03-06T19:51:08.133Z,10.77
2023-03-06T19:53:34.785Z,11.02
2023-03-06T19:56:06.355Z,10.60
2023-03-06T19:58:33.172Z,10.38
2023-03-06T20:01:11.039Z,10.52
2023-03-06T20:03:40.107Z,10.43
2023-03-06T20:06:06.855Z,10.15
2023-03-06T20:08:33.407Z,12.70
2023-03-06T20:10:59.951Z,10.70
2023-03-06T20:13:26.538Z,11.50
2023-03-06T20:15:53.061Z,11.52
2023-03-06T20:18:19.583Z,10.52
2023-03-06T20:20:46.173Z,10.88
2023-03-06T20:23:14.584Z,10.38
2023-03-06T20:25:42.824Z,11.10
2023-03-06T20:28:09.331Z,11.27
2023-03-06T20:30:38.468Z,12.32
2023-03-06T20:33:05.102Z,11.30
2023-03-06T20:35:31.752Z,11.25
2023-03-06T20:37:58.373Z,11.73
2023-03-06T20:40:26.102Z,12.35
2023-03-06T20:42:52.774Z,11.55
2023-03-06T20:45:19.562Z,11.98
2023-03-06T20:47:46.074Z,11.57
2023-03-06T20:50:14.784Z,11.98
2023-03-06T20:52:41.700Z,12.45
2023-03-06T20:55:09.932Z,11.57
2023-03-06T20:57:39.516Z,10.77
2023-03-06T21:00:06.808Z,11.85
2023-03-06T21:02:33.327Z,12.00
2023-03-06T21:05:00.385Z,11.73
2023-03-06T21:07:26.981Z,12.43
2023-03-06T21:09:53.547Z,11.45
2023-03-06T21:12:20.116Z,12.93
2023-03-06T21:14:46.771Z,11.73
2023-03-06T21:17:15.573Z,11.93
2023-03-06T21:19:42.199Z,13.77
2023-03-06T21:22:08.746Z,13.10
2023-03-06T21:24:35.647Z,12.65
2023-03-06T21:27:04.676Z,12.93
2023-03-06T21:29:34.775Z,14.32
2023-03-06T21:32:01.369Z,17.70
2023-03-06T21:34:28.012Z,11.82
2023-03-06T21:36:54.646Z,14.13
2023-03-06T21:39:21.249Z,14.52
2023-03-06T21:41:47.760Z,13.02
2023-03-06T21:44:14.355Z,13.30
2023-03-06T21:46:40.849Z,14.32
2023-03-06T21:49:07.386Z,17.33
2023-03-06T21:51:34.112Z,14.13
2023-03-06T21:54:00.749Z,13.73
2023-03-06T21:56:27.650Z,15.50
2023-03-06T21:58:56.375Z,12.27
2023-03-06T22:01:25.234Z,12.45
2023-03-06T22:03:52.156Z,11.73
2023-03-06T22:06:23.680Z,12.45
2023-03-06T22:08:52.900Z,11.95
2023-03-06T22:11:21.336Z,12.07
2023-03-06T22:13:48.864Z,12.57
2023-03-06T22:16:15.755Z,12.55
2023-03-06T22:18:46.736Z,11.80
2023-03-06T22:21:15.429Z,13.15
2023-03-06T22:23:42.946Z,13.10
2023-03-06T22:26:11.726Z,13.55
2023-03-06T22:28:38.865Z,11.55
2023-03-06T22:31:13.924Z,13.48
2023-03-06T22:33:41.251Z,13.32
2023-03-06T22:36:12.510Z,13.02
2023-03-06T22:38:41.029Z,14.18
2023-03-06T22:41:08.900Z,13.55
2023-03-06T22:43:36.150Z,12.05
2023-03-06T22:46:09.347Z,13.05
2023-03-06T22:48:35.959Z,13.10
2023-03-06T22:51:04.554Z,11.32
2023-03-06T22:53:31.629Z,12.95
2023-03-06T22:55:59.378Z,12.65
2023-03-06T22:58:26.786Z,13.05
2023-03-06T23:00:53.591Z,12.80
2023-03-06T23:03:20.486Z,12.10
2023-03-06T23:05:46.979Z,12.02
2023-03-06T23:08:13.516Z,20.27
2023-03-06T23:10:40.061Z,13.82
2023-03-06T23:13:06.640Z,12.93
2023-03-06T23:15:35.627Z,12.88
2023-03-06T23:18:02.366Z,12.55
2023-03-06T23:20:29.253Z,11.55
2023-03-06T23:22:56.058Z,11.90
2023-03-06T23:25:22.591Z,11.55
2023-03-06T23:27:49.088Z,12.23
2023-03-06T23:30:15.732Z,12.60
2023-03-06T23:32:44.832Z,12.13
2023-03-06T23:35:12.256Z,11.68
2023-03-06T23:37:38.738Z,11.77
2023-03-06T23:40:05.788Z,11.63
2023-03-06T23:42:32.574Z,11.38
2023-03-06T23:44:59.030Z,11.85
2023-03-06T23:47:25.827Z,10.68
2023-03-06T23:49:52.405Z,11.52
2023-03-06T23:52:18.915Z,11.65
2023-03-06T23:54:48.350Z,11.82
2023-03-06T23:57:16.623Z,10.77
2023-03-06T23:59:43.735Z,11.48
